sensor_id;sensor_type;location;lat;lon;timestamp;pressure;altitude;pressure_sealevel;temperature;humidity
76046;BME280;64741;41.730;44.788;2024-02-26T00:00:04;1008.4;;;22.2;40.3
76046;BME280;64741;41.730;44.788;2024-02-26T00:04:26;1008.4;;;22.2;40.3
76046;BME280;64741;41.730;44.788;2024-02-26T00:09:56;1008.4;;;22.2;40.4
76046;BME280;64741;41.730;44.788;2024-02-26T00:15:04;1008.3;;;22.1;40.1
76046;BME280;64741;41.730;44.788;2024-02-26T00:20:03;1008.3;;;22.1;40.1
76046;BME280;64741;41.730;44.788;2024-02-26T00:24:50;1008.3;;;22.1;40
76046;BME280;64741;41.730;44.788;2024-02-26T00:30:04;1008.3;;;22;39.9
76046;BME280;64741;41.730;44.788;2024-02-26T00:34:52;1008.3;;;22;39.9
76046;BME280;64741;41.730;44.788;2024-02-26T00:39:58;1008.3;;;22;40.1
76046;BME280;64741;41.730;44.788;2024-02-26T00:45:02;1008.3;;;22.1;40.2
76046;BME280;64741;41.730;44.788;2024-02-26T00:50:02;1008.3;;;22.1;40.2
76046;BME280;64741;41.730;44.788;2024-02-26T00:54:50;1008.3;;;22.1;40.3
76046;BME280;64741;41.730;44.788;2024-02-26T00:59:44;1008.3;;;22.1;40.4
76046;BME280;64741;41.730;44.788;2024-02-26T01:04:36;1008.3;;;22.1;40.3
76046;BME280;64741;41.730;44.788;2024-02-26T01:10:02;1008.3;;;22.1;40.2
76046;BME280;64741;41.730;44.788;2024-02-26T01:14:54;1008.3;;;22.1;40.2
76046;BME280;64741;41.730;44.788;2024-02-26T01:19:54;1008.3;;;22.1;40.3
76046;BME280;64741;41.730;44.788;2024-02-26T01:25:04;1008.3;;;22.1;40.3
76046;BME280;64741;41.730;44.788;2024-02-26T01:30:04;1008.3;;;22.1;40.1
76046;BME280;64741;41.730;44.788;2024-02-26T01:34:40;1008.3;;;22.1;40.1
76046;BME280;64741;41.730;44.788;2024-02-26T01:40:04;1008.3;;;22;40.1
76046;BME280;64741;41.730;44.788;2024-02-26T01:44:58;1008.3;;;22;40.1
76046;BME280;64741;41.730;44.788;2024-02-26T01:49:40;1008.3;;;22;40
76046;BME280;64741;41.730;44.788;2024-02-26T01:55:02;1008.3;;;22;39.9
76046;BME280;64741;41.730;44.788;2024-02-26T01:59:58;1008.3;;;22;39.9
76046;BME280;64741;41.730;44.788;2024-02-26T02:04:58;1008.3;;;22;40
76046;BME280;64741;41.730;44.788;2024-02-26T02:09:46;1008.3;;;21.9;39.8
76046;BME280;64741;41.730;44.788;2024-02-26T02:14:58;1008.3;;;21.9;39.8
76046;BME280;64741;41.730;44.788;2024-02-26T02:20:02;1008.3;;;21.9;39.9
76046;BME280;64741;41.730;44.788;2024-02-26T02:25:04;1008.4;;;21.9;40
76046;BME280;64741;41.730;44.788;2024-02-26T02:29:58;1008.4;;;21.9;40
76046;BME280;64741;41.730;44.788;2024-02-26T02:34:54;1008.3;;;21.9;39.8
76046;BME280;64741;41.730;44.788;2024-02-26T02:39:56;1008.3;;;21.9;39.9
76046;BME280;64741;41.730;44.788;2024-02-26T02:45:04;1008.3;;;21.9;40
76046;BME280;64741;41.730;44.788;2024-02-26T02:49:42;1008.3;;;21.9;40
76046;BME280;64741;41.730;44.788;2024-02-26T02:54:44;1008.3;;;21.9;39.9
76046;BME280;64741;41.730;44.788;2024-02-26T03:00:04;1008.2;;;21.9;39.8
76046;BME280;64741;41.730;44.788;2024-02-26T03:05:04;1008.2;;;21.9;39.8
76046;BME280;64741;41.730;44.788;2024-02-26T03:09:48;1008.2;;;21.9;39.8
76046;BME280;64741;41.730;44.788;2024-02-26T03:15:04;1008.1;;;21.8;39.8
76046;BME280;64741;41.730;44.788;2024-02-26T03:19:58;1008.1;;;21.8;39.8
76046;BME280;64741;41.730;44.788;2024-02-26T03:24:48;1008.1;;;21.9;39.9
76046;BME280;64741;41.730;44.788;2024-02-26T03:30:04;1008.1;;;21.8;39.9
76046;BME280;64741;41.730;44.788;2024-02-26T03:34:58;1008.1;;;21.8;39.9
76046;BME280;64741;41.730;44.788;2024-02-26T03:39:58;1008.1;;;21.9;40
76046;BME280;64741;41.730;44.788;2024-02-26T03:44:54;1008.1;;;21.8;39.9
76046;BME280;64741;41.730;44.788;2024-02-26T03:50:04;1008;;;21.8;39.8
76046;BME280;64741;41.730;44.788;2024-02-26T03:54:58;1008;;;21.8;39.8
76046;BME280;64741;41.730;44.788;2024-02-26T04:00:04;1008;;;21.8;39.9
76046;BME280;64741;41.730;44.788;2024-02-26T04:04:58;1008;;;21.8;39.9
76046;BME280;64741;41.730;44.788;2024-02-26T04:10:08;1008.1;;;21.8;39.8
76046;BME280;64741;41.730;44.788;2024-02-26T04:14:58;1008.1;;;21.8;39.8
76046;BME280;64741;41.730;44.788;2024-02-26T04:20:02;1008.1;;;21.8;39.7
76046;BME280;64741;41.730;44.788;2024-02-26T04:25:02;1008.2;;;21.8;39.8
76046;BME280;64741;41.730;44.788;2024-02-26T04:29:54;1008.3;;;21.8;39.9
76046;BME280;64741;41.730;44.788;2024-02-26T04:35:04;1008.3;;;21.8;39.9
76046;BME280;64741;41.730;44.788;2024-02-26T04:39:44;1008.3;;;21.8;39.9
76046;BME280;64741;41.730;44.788;2024-02-26T04:44:58;1008.4;;;21.8;39.8
76046;BME280;64741;41.730;44.788;2024-02-26T04:50:04;1008.4;;;21.8;40.2
76046;BME280;64741;41.730;44.788;2024-02-26T04:55:02;1008.4;;;21.8;40.2
76046;BME280;64741;41.730;44.788;2024-02-26T04:59:58;1008.4;;;21.7;39.8
76046;BME280;64741;41.730;44.788;2024-02-26T05:05:02;1008.4;;;21.7;39.8
76046;BME280;64741;41.730;44.788;2024-02-26T05:09:54;1008.4;;;21.7;39.7
76046;BME280;64741;41.730;44.788;2024-02-26T05:14:30;1008.4;;;21.6;39.6
76046;BME280;64741;41.730;44.788;2024-02-26T05:19:52;1008.4;;;21.6;39.8
76046;BME280;64741;41.730;44.788;2024-02-26T05:24:50;1008.3;;;21.6;39.6
76046;BME280;64741;41.730;44.788;2024-02-26T05:29:54;1008.3;;;21.6;39.7
76046;BME280;64741;41.730;44.788;2024-02-26T05:34:52;1008.3;;;21.7;39.8
76046;BME280;64741;41.730;44.788;2024-02-26T05:39:50;1008.3;;;21.7;40.1
76046;BME280;64741;41.730;44.788;2024-02-26T05:45:02;1008.3;;;21.8;40
76046;BME280;64741;41.730;44.788;2024-02-26T05:49:40;1008.3;;;21.8;39.9
76046;BME280;64741;41.730;44.788;2024-02-26T05:54:58;1008.3;;;21.8;39.8
76046;BME280;64741;41.730;44.788;2024-02-26T05:59:22;1008.3;;;21.8;39.9
76046;BME280;64741;41.730;44.788;2024-02-26T06:04:52;1008.3;;;21.8;39.8
76046;BME280;64741;41.730;44.788;2024-02-26T06:10:02;1008.3;;;21.8;39.8
76046;BME280;64741;41.730;44.788;2024-02-26T06:14:52;1008.3;;;21.8;39.8
76046;BME280;64741;41.730;44.788;2024-02-26T06:20:02;1008.3;;;21.8;39.8
76046;BME280;64741;41.730;44.788;2024-02-26T06:24:22;1008.3;;;21.8;39.8
76046;BME280;64741;41.730;44.788;2024-02-26T06:30:02;1008.4;;;21.8;39.8
76046;BME280;64741;41.730;44.788;2024-02-26T06:35:02;1008.4;;;21.8;39.8
76046;BME280;64741;41.730;44.788;2024-02-26T06:39:48;1008.4;;;21.7;39.8
76046;BME280;64741;41.730;44.788;2024-02-26T06:44:50;1008.5;;;21.7;39.8
76046;BME280;64741;41.730;44.788;2024-02-26T06:50:02;1008.4;;;21.7;39.8
76046;BME280;64741;41.730;44.788;2024-02-26T06:54:50;1008.4;;;21.7;39.8
76046;BME280;64741;41.730;44.788;2024-02-26T06:59:42;1008.4;;;21.7;39.8
76046;BME280;64741;41.730;44.788;2024-02-26T07:05:00;1008.4;;;21.7;39.8
76046;BME280;64741;41.730;44.788;2024-02-26T07:09:50;1008.4;;;21.7;39.8
76046;BME280;64741;41.730;44.788;2024-02-26T07:14:50;1008.3;;;21.7;39.7
76046;BME280;64741;41.730;44.788;2024-02-26T07:20:00;1008.3;;;21.7;39.6
76046;BME280;64741;41.730;44.788;2024-02-26T07:24:56;1008.2;;;21.7;39.6
76046;BME280;64741;41.730;44.788;2024-02-26T07:29:56;1008.2;;;21.6;39.7
76046;BME280;64741;41.730;44.788;2024-02-26T07:35:00;1008.2;;;21.6;39.6
76046;BME280;64741;41.730;44.788;2024-02-26T07:39:50;1008.1;;;21.6;39.7
76046;BME280;64741;41.730;44.788;2024-02-26T07:45:01;1008.1;;;21.6;39.6
76046;BME280;64741;41.730;44.788;2024-02-26T07:49:50;1008.1;;;21.6;39.6
76046;BME280;64741;41.730;44.788;2024-02-26T07:55:00;1008.1;;;21.6;40.2
76046;BME280;64741;41.730;44.788;2024-02-26T07:59:36;1008.1;;;21.7;42.6
76046;BME280;64741;41.730;44.788;2024-02-26T08:04:58;1008.1;;;21.7;44.3
76046;BME280;64741;41.730;44.788;2024-02-26T08:10:02;1008.1;;;21.9;44.6
76046;BME280;64741;41.730;44.788;2024-02-26T08:15:02;1008.1;;;21.9;44.2
76046;BME280;64741;41.730;44.788;2024-02-26T08:19:56;1008.1;;;22;44.5
76046;BME280;64741;41.730;44.788;2024-02-26T08:25:02;1008.1;;;22.1;45.5
76046;BME280;64741;41.730;44.788;2024-02-26T08:30:02;1008.1;;;22.2;45.5
76046;BME280;64741;41.730;44.788;2024-02-26T08:34:52;1008;;;22.2;45.8
76046;BME280;64741;41.730;44.788;2024-02-26T08:40:05;1007.9;;;22.3;46.7
76046;BME280;64741;41.730;44.788;2024-02-26T08:44:50;1007.9;;;22.3;46.7
76046;BME280;64741;41.730;44.788;2024-02-26T08:49:42;1007.9;;;22.4;46.6
76046;BME280;64741;41.730;44.788;2024-02-26T08:55:00;1007.9;;;22.4;46.1
76046;BME280;64741;41.730;44.788;2024-02-26T08:59:36;1007.8;;;22.4;45.2
76046;BME280;64741;41.730;44.788;2024-02-26T09:04:56;1007.7;;;22.4;44.8
76046;BME280;64741;41.730;44.788;2024-02-26T09:09:50;1007.7;;;22.4;44.3
76046;BME280;64741;41.730;44.788;2024-02-26T09:15:00;1007.6;;;22.4;43.8
76046;BME280;64741;41.730;44.788;2024-02-26T09:20:02;1007.5;;;22.3;43.5
76046;BME280;64741;41.730;44.788;2024-02-26T09:24:50;1007.4;;;22.3;43.3
76046;BME280;64741;41.730;44.788;2024-02-26T09:29:44;1007.2;;;22.3;42.9
76046;BME280;64741;41.730;44.788;2024-02-26T09:35:02;1007.2;;;22.3;42.8
76046;BME280;64741;41.730;44.788;2024-02-26T09:39:14;1007.1;;;22.3;42.8
76046;BME280;64741;41.730;44.788;2024-02-26T09:44:56;1007.1;;;22.3;42.9
76046;BME280;64741;41.730;44.788;2024-02-26T09:49:28;1007;;;22.3;42.9
76046;BME280;64741;41.730;44.788;2024-02-26T09:54:56;1006.9;;;22.3;42.9
76046;BME280;64741;41.730;44.788;2024-02-26T09:59:57;1007;;;22.3;42.8
76046;BME280;64741;41.730;44.788;2024-02-26T10:05:04;1006.9;;;22.3;42.5
76046;BME280;64741;41.730;44.788;2024-02-26T10:09:56;1006.9;;;22.3;42.5
76046;BME280;64741;41.730;44.788;2024-02-26T10:14:56;1006.9;;;22.2;42.6
76046;BME280;64741;41.730;44.788;2024-02-26T10:19:52;1006.8;;;22.3;41.9
76046;BME280;64741;41.730;44.788;2024-02-26T10:25:02;1006.8;;;22.3;41.5
76046;BME280;64741;41.730;44.788;2024-02-26T10:29:58;1006.6;;;22.3;41.4
76046;BME280;64741;41.730;44.788;2024-02-26T10:35:04;1006.5;;;22.3;41.1
76046;BME280;64741;41.730;44.788;2024-02-26T10:39:58;1006.5;;;22.3;41.1
76046;BME280;64741;41.730;44.788;2024-02-26T10:45:03;1006.5;;;22.4;40.9
76046;BME280;64741;41.730;44.788;2024-02-26T10:49:48;1006.5;;;22.4;40.7
76046;BME280;64741;41.730;44.788;2024-02-26T10:55:05;1006.4;;;22.4;40.6
76046;BME280;64741;41.730;44.788;2024-02-26T11:00:05;1006.4;;;22.4;40.5
76046;BME280;64741;41.730;44.788;2024-02-26T11:04:55;1006.4;;;22.4;40.5
76046;BME280;64741;41.730;44.788;2024-02-26T11:09:54;1006.3;;;22.4;40.4
76046;BME280;64741;41.730;44.788;2024-02-26T11:15:05;1006.2;;;22.4;40.4
76046;BME280;64741;41.730;44.788;2024-02-26T11:19:59;1006.2;;;22.4;40.4
76046;BME280;64741;41.730;44.788;2024-02-26T11:24:44;1006.2;;;22.4;40.3
76046;BME280;64741;41.730;44.788;2024-02-26T11:30:02;1006.2;;;22.3;40.2
76046;BME280;64741;41.730;44.788;2024-02-26T11:34:58;1006.2;;;22.3;40.2
76046;BME280;64741;41.730;44.788;2024-02-26T11:40:02;1006.1;;;22.3;40
76046;BME280;64741;41.730;44.788;2024-02-26T11:44:54;1006.1;;;22.3;40.2
76046;BME280;64741;41.730;44.788;2024-02-26T11:50:32;1006;;;22.2;40
76046;BME280;64741;41.730;44.788;2024-02-26T11:54:56;1006;;;22.2;40
76046;BME280;64741;41.730;44.788;2024-02-26T11:59:44;1006;;;22.2;39.9
76046;BME280;64741;41.730;44.788;2024-02-26T12:04:58;1005.9;;;22.2;39.9
76046;BME280;64741;41.730;44.788;2024-02-26T12:10:36;1005.8;;;22.1;39.9
76046;BME280;64741;41.730;44.788;2024-02-26T12:14:58;1005.8;;;22.1;39.9
76046;BME280;64741;41.730;44.788;2024-02-26T12:19:44;1005.8;;;22.1;40
76046;BME280;64741;41.730;44.788;2024-02-26T12:24:59;1005.7;;;22.1;40
76046;BME280;64741;41.730;44.788;2024-02-26T12:30:05;1005.6;;;22.1;39.9
76046;BME280;64741;41.730;44.788;2024-02-26T12:35:05;1005.5;;;22;40
76046;BME280;64741;41.730;44.788;2024-02-26T12:39:54;1005.5;;;22;40
76046;BME280;64741;41.730;44.788;2024-02-26T12:45:05;1005.5;;;22;39.9
76046;BME280;64741;41.730;44.788;2024-02-26T12:49:46;1005.5;;;22;39.9
76046;BME280;64741;41.730;44.788;2024-02-26T12:54:58;1005.5;;;22;39.9
76046;BME280;64741;41.730;44.788;2024-02-26T13:00:05;1005.4;;;22;39.8
76046;BME280;64741;41.730;44.788;2024-02-26T13:04:44;1005.4;;;22;39.8
76046;BME280;64741;41.730;44.788;2024-02-26T13:09:59;1005.4;;;22;40
76046;BME280;64741;41.730;44.788;2024-02-26T13:15:03;1005.4;;;22;40.1
76046;BME280;64741;41.730;44.788;2024-02-26T13:19:52;1005.3;;;22;40
76046;BME280;64741;41.730;44.788;2024-02-26T13:25:03;1005.2;;;22;40
76046;BME280;64741;41.730;44.788;2024-02-26T13:30:09;1005.2;;;21.9;40
76046;BME280;64741;41.730;44.788;2024-02-26T13:35:03;1005.1;;;21.9;40
76046;BME280;64741;41.730;44.788;2024-02-26T13:40:05;1005.1;;;21.9;40
76046;BME280;64741;41.730;44.788;2024-02-26T13:44:54;1005.1;;;21.9;40
76046;BME280;64741;41.730;44.788;2024-02-26T13:49:32;1005;;;21.9;40
76046;BME280;64741;41.730;44.788;2024-02-26T13:55:05;1005;;;21.9;39.5
76046;BME280;64741;41.730;44.788;2024-02-26T13:59:58;1005;;;21.9;39.5
76046;BME280;64741;41.730;44.788;2024-02-26T14:04:58;1005;;;21.9;39.4
76046;BME280;64741;41.730;44.788;2024-02-26T14:10:05;1004.9;;;22;38.9
76046;BME280;64741;41.730;44.788;2024-02-26T14:14:54;1004.9;;;22;38.9
76046;BME280;64741;41.730;44.788;2024-02-26T14:20:05;1004.9;;;22;38.7
76046;BME280;64741;41.730;44.788;2024-02-26T14:24:54;1004.9;;;22;38.7
76046;BME280;64741;41.730;44.788;2024-02-26T14:30:05;1004.8;;;22;38.6
76046;BME280;64741;41.730;44.788;2024-02-26T14:34:58;1004.8;;;22;38.6
76046;BME280;64741;41.730;44.788;2024-02-26T14:40:05;1004.8;;;22.1;39.2
76046;BME280;64741;41.730;44.788;2024-02-26T14:45:05;1004.9;;;22.1;39.3
76046;BME280;64741;41.730;44.788;2024-02-26T14:50:05;1004.9;;;22.1;39.3
76046;BME280;64741;41.730;44.788;2024-02-26T14:54:59;1004.9;;;22.1;39.3
76046;BME280;64741;41.730;44.788;2024-02-26T15:00:05;1004.9;;;22.2;39.3
76046;BME280;64741;41.730;44.788;2024-02-26T15:05:05;1004.8;;;22.2;39.1
76046;BME280;64741;41.730;44.788;2024-02-26T15:09:52;1004.8;;;22.2;39.1
76046;BME280;64741;41.730;44.788;2024-02-26T15:14:56;1004.8;;;22.2;39.3
76046;BME280;64741;41.730;44.788;2024-02-26T15:19:16;1004.8;;;22.2;39.2
76046;BME280;64741;41.730;44.788;2024-02-26T15:24:59;1004.9;;;22.2;39.1
76046;BME280;64741;41.730;44.788;2024-02-26T15:30:01;1004.8;;;22.2;39.1
76046;BME280;64741;41.730;44.788;2024-02-26T15:35:03;1004.8;;;22.2;39.1
76046;BME280;64741;41.730;44.788;2024-02-26T15:39:58;1004.9;;;22.2;39.1
76046;BME280;64741;41.730;44.788;2024-02-26T15:44:54;1004.8;;;22.2;39.1
76046;BME280;64741;41.730;44.788;2024-02-26T15:49:50;1004.8;;;22.2;39.2
76046;BME280;64741;41.730;44.788;2024-02-26T15:55:03;1004.8;;;22.1;39.1
76046;BME280;64741;41.730;44.788;2024-02-26T15:59:54;1004.8;;;22.1;39.1
76046;BME280;64741;41.730;44.788;2024-02-26T16:04:53;1004.8;;;22.1;39.2
76046;BME280;64741;41.730;44.788;2024-02-26T16:10:05;1004.8;;;22;39.3
76046;BME280;64741;41.730;44.788;2024-02-26T16:14:36;1004.8;;;22;39.3
76046;BME280;64741;41.730;44.788;2024-02-26T16:19:41;1004.8;;;22;39.3
76046;BME280;64741;41.730;44.788;2024-02-26T16:24:48;1004.9;;;22;39.3
76046;BME280;64741;41.730;44.788;2024-02-26T16:29:50;1004.9;;;22;39.3
76046;BME280;64741;41.730;44.788;2024-02-26T16:34:58;1004.9;;;22;39.5
76046;BME280;64741;41.730;44.788;2024-02-26T16:40:04;1004.9;;;22;39.4
76046;BME280;64741;41.730;44.788;2024-02-26T16:44:56;1005;;;22;39.4
76046;BME280;64741;41.730;44.788;2024-02-26T16:49:55;1005;;;22;39.5
76046;BME280;64741;41.730;44.788;2024-02-26T16:54:53;1005;;;22;39.5
76046;BME280;64741;41.730;44.788;2024-02-26T16:59:56;1005.1;;;22;39.6
76046;BME280;64741;41.730;44.788;2024-02-26T17:05:03;1005.1;;;22;39.6
76046;BME280;64741;41.730;44.788;2024-02-26T17:10:03;1005.1;;;22.1;39.5
76046;BME280;64741;41.730;44.788;2024-02-26T17:14:57;1005.1;;;22.1;39.4
76046;BME280;64741;41.730;44.788;2024-02-26T17:19:53;1005.1;;;22.1;39.5
76046;BME280;64741;41.730;44.788;2024-02-26T17:24:23;1005.2;;;22.2;39.6
76046;BME280;64741;41.730;44.788;2024-02-26T17:29:55;1005.2;;;22.2;39.7
76046;BME280;64741;41.730;44.788;2024-02-26T17:34:39;1005.2;;;22.2;39.7
76046;BME280;64741;41.730;44.788;2024-02-26T17:39:53;1005.3;;;22.3;39.8
76046;BME280;64741;41.730;44.788;2024-02-26T17:45:05;1005.4;;;22.4;39.8
76046;BME280;64741;41.730;44.788;2024-02-26T17:50:03;1005.4;;;22.4;39.8
76046;BME280;64741;41.730;44.788;2024-02-26T17:54:39;1005.4;;;22.5;39.8
76046;BME280;64741;41.730;44.788;2024-02-26T18:00:03;1005.4;;;22.5;39.7
76046;BME280;64741;41.730;44.788;2024-02-26T18:04:58;1005.4;;;22.6;39.7
76046;BME280;64741;41.730;44.788;2024-02-26T18:09:58;1005.4;;;22.6;39.6
76046;BME280;64741;41.730;44.788;2024-02-26T18:15:06;1005.5;;;22.7;39.7
76046;BME280;64741;41.730;44.788;2024-02-26T18:19:57;1005.5;;;22.7;39.7
76046;BME280;64741;41.730;44.788;2024-02-26T18:24:35;1005.5;;;22.7;39.6
76046;BME280;64741;41.730;44.788;2024-02-26T18:29:51;1005.5;;;22.8;39.5
76046;BME280;64741;41.730;44.788;2024-02-26T18:35:05;1005.6;;;22.8;39.9
76046;BME280;64741;41.730;44.788;2024-02-26T18:39:57;1005.6;;;22.8;39.9
76046;BME280;64741;41.730;44.788;2024-02-26T18:44:57;1005.6;;;22.9;40.7
76046;BME280;64741;41.730;44.788;2024-02-26T18:49:57;1005.6;;;22.9;42.2
76046;BME280;64741;41.730;44.788;2024-02-26T18:54:37;1005.6;;;22.9;42.8
76046;BME280;64741;41.730;44.788;2024-02-26T18:59:47;1005.7;;;23;42.6
76046;BME280;64741;41.730;44.788;2024-02-26T19:05:05;1005.8;;;23;42.1
76046;BME280;64741;41.730;44.788;2024-02-26T19:10:05;1005.8;;;23;41.6
76046;BME280;64741;41.730;44.788;2024-02-26T19:14:55;1005.8;;;23;41.6
76046;BME280;64741;41.730;44.788;2024-02-26T19:20:03;1005.8;;;22.9;41.2
76046;BME280;64741;41.730;44.788;2024-02-26T19:24:51;1005.8;;;22.9;41.2
76046;BME280;64741;41.730;44.788;2024-02-26T19:29:59;1005.8;;;22.9;41
76046;BME280;64741;41.730;44.788;2024-02-26T19:35:05;1005.8;;;22.8;40.7
76046;BME280;64741;41.730;44.788;2024-02-26T19:40:05;1005.8;;;22.8;40.7
76046;BME280;64741;41.730;44.788;2024-02-26T19:44:59;1005.8;;;22.8;40.7
76046;BME280;64741;41.730;44.788;2024-02-26T19:50:05;1005.9;;;22.8;40.5
76046;BME280;64741;41.730;44.788;2024-02-26T19:54:55;1005.9;;;22.8;40.5
76046;BME280;64741;41.730;44.788;2024-02-26T20:00:03;1005.9;;;22.7;40.4
76046;BME280;64741;41.730;44.788;2024-02-26T20:04:53;1005.9;;;22.7;40.4
76046;BME280;64741;41.730;44.788;2024-02-26T20:09:53;1005.9;;;22.7;40.4
76046;BME280;64741;41.730;44.788;2024-02-26T20:15:05;1005.9;;;22.7;40.2
76046;BME280;64741;41.730;44.788;2024-02-26T20:19:53;1005.9;;;22.7;40.2
76046;BME280;64741;41.730;44.788;2024-02-26T20:24:54;1006;;;22.6;40.2
76046;BME280;64741;41.730;44.788;2024-02-26T20:30:03;1006;;;22.6;40.1
76046;BME280;64741;41.730;44.788;2024-02-26T20:34:57;1006;;;22.6;40.1
76046;BME280;64741;41.730;44.788;2024-02-26T20:39:57;1006;;;22.6;39.9
76046;BME280;64741;41.730;44.788;2024-02-26T20:45:05;1006.1;;;22.6;39.9
76046;BME280;64741;41.730;44.788;2024-02-26T20:49:53;1006.1;;;22.6;39.9
76046;BME280;64741;41.730;44.788;2024-02-26T20:54:51;1006.1;;;22.5;39.9
76046;BME280;64741;41.730;44.788;2024-02-26T20:59:53;1006.1;;;22.5;39.8
76046;BME280;64741;41.730;44.788;2024-02-26T21:05:05;1006.1;;;22.5;39.6
76046;BME280;64741;41.730;44.788;2024-02-26T21:09:59;1006.1;;;22.5;39.6
76046;BME280;64741;41.730;44.788;2024-02-26T21:15:05;1006.2;;;22.5;39.6
76046;BME280;64741;41.730;44.788;2024-02-26T21:20:03;1006.2;;;22.5;39.8
76046;BME280;64741;41.730;44.788;2024-02-26T21:25:05;1006.2;;;22.5;39.7
76046;BME280;64741;41.730;44.788;2024-02-26T21:29:59;1006.2;;;22.5;39.7
76046;BME280;64741;41.730;44.788;2024-02-26T21:35:05;1006.2;;;22.5;40.1
76046;BME280;64741;41.730;44.788;2024-02-26T21:40:05;1006.2;;;22.5;40.1
76046;BME280;64741;41.730;44.788;2024-02-26T21:44:53;1006.2;;;22.5;40.1
76046;BME280;64741;41.730;44.788;2024-02-26T21:49:31;1006.2;;;22.4;40.1
76046;BME280;64741;41.730;44.788;2024-02-26T21:54:54;1006.2;;;22.4;40.1
76046;BME280;64741;41.730;44.788;2024-02-26T21:59:17;1006.2;;;22.4;40.3
76046;BME280;64741;41.730;44.788;2024-02-26T22:05:05;1006.2;;;22.4;40.4
76046;BME280;64741;41.730;44.788;2024-02-26T22:09:59;1006.2;;;22.4;40.4
76046;BME280;64741;41.730;44.788;2024-02-26T22:14:59;1006.2;;;22.4;40.3
76046;BME280;64741;41.730;44.788;2024-02-26T22:20:05;1006.2;;;22.3;39.8
76046;BME280;64741;41.730;44.788;2024-02-26T22:24:55;1006.2;;;22.3;39.8
76046;BME280;64741;41.730;44.788;2024-02-26T22:29:55;1006.2;;;22.3;39.5
76046;BME280;64741;41.730;44.788;2024-02-26T22:34:55;1006.2;;;22.3;39.6
76046;BME280;64741;41.730;44.788;2024-02-26T22:40:05;1006.3;;;22.3;40.1
76046;BME280;64741;41.730;44.788;2024-02-26T22:44:59;1006.3;;;22.3;40.1
76046;BME280;64741;41.730;44.788;2024-02-26T22:50:05;1006.3;;;22.2;39.7
76046;BME280;64741;41.730;44.788;2024-02-26T22:55:05;1006.3;;;22.2;39.7
76046;BME280;64741;41.730;44.788;2024-02-26T23:00:05;1006.3;;;22.2;39.7
76046;BME280;64741;41.730;44.788;2024-02-26T23:04:19;1006.3;;;22.2;39.7
76046;BME280;64741;41.730;44.788;2024-02-26T23:09:57;1006.4;;;22.2;39.8
76046;BME280;64741;41.730;44.788;2024-02-26T23:15:05;1006.5;;;22.2;39.4
76046;BME280;64741;41.730;44.788;2024-02-26T23:19:59;1006.5;;;22.2;39.4
76046;BME280;64741;41.730;44.788;2024-02-26T23:25:05;1006.5;;;22.1;39.3
76046;BME280;64741;41.730;44.788;2024-02-26T23:29:57;1006.5;;;22.1;39.3
76046;BME280;64741;41.730;44.788;2024-02-26T23:35:05;1006.5;;;22.1;39.4
76046;BME280;64741;41.730;44.788;2024-02-26T23:40:06;1006.5;;;22.1;39.3
76046;BME280;64741;41.730;44.788;2024-02-26T23:44:43;1006.5;;;22.1;39.3
76046;BME280;64741;41.730;44.788;2024-02-26T23:50:03;1006.5;;;22.1;39.2
76046;BME280;64741;41.730;44.788;2024-02-26T23:55:03;1006.5;;;22;39.2
76046;BME280;64741;41.730;44.788;2024-02-26T23:59:57;1006.5;;;22;39.2
